sensor_id;sensor_type;location;lat;lon;timestamp;pressure;altitude;pressure_sealevel;temperature;humidity
36726;BME280;44936;52.086;5.150;2022-11-18T00:01:25;99818.44;;;7.78;100.00
36726;BME280;44936;52.086;5.150;2022-11-18T00:03:51;99833.22;;;7.82;100.00
36726;BME280;44936;52.086;5.150;2022-11-18T00:06:22;99862.78;;;7.93;100.00
36726;BME280;44936;52.086;5.150;2022-11-18T00:08:51;99841.94;;;7.73;100.00
36726;BME280;44936;52.086;5.150;2022-11-18T00:11:19;99874.06;;;7.95;100.00
36726;BME280;44936;52.086;5.150;2022-11-18T00:14:12;99875.84;;;7.82;100.00
36726;BME280;44936;52.086;5.150;2022-11-18T00:16:52;99871.50;;;7.83;100.00
36726;BME280;44936;52.086;5.150;2022-11-18T00:19:18;99887.16;;;7.87;100.00
36726;BME280;44936;52.086;5.150;2022-11-18T00:21:44;99857.63;;;7.62;100.00
36726;BME280;44936;52.086;5.150;2022-11-18T00:24:09;99876.72;;;7.74;100.00
36726;BME280;44936;52.086;5.150;2022-11-18T00:26:35;99872.41;;;7.70;100.00
36726;BME280;44936;52.086;5.150;2022-11-18T00:29:01;99861.94;;;7.68;100.00
36726;BME280;44936;52.086;5.150;2022-11-18T00:31:27;99881.97;;;7.80;100.00
36726;BME280;44936;52.086;5.150;2022-11-18T00:33:52;99863.69;;;7.66;100.00
36726;BME280;44936;52.086;5.150;2022-11-18T00:36:18;99861.94;;;7.66;100.00
36726;BME280;44936;52.086;5.150;2022-11-18T00:38:43;99858.47;;;7.61;100.00
36726;BME280;44936;52.086;5.150;2022-11-18T00:41:11;99856.75;;;7.56;100.00
36726;BME280;44936;52.086;5.150;2022-11-18T00:43:37;99892.41;;;7.72;100.00
36726;BME280;44936;52.086;5.150;2022-11-18T00:46:05;99868.94;;;7.61;100.00
36726;BME280;44936;52.086;5.150;2022-11-18T00:48:31;99868.91;;;7.57;100.00
36726;BME280;44936;52.086;5.150;2022-11-18T00:51:15;99900.22;;;7.74;100.00
36726;BME280;44936;52.086;5.150;2022-11-18T00:53:41;99870.66;;;7.56;100.00
36726;BME280;44936;52.086;5.150;2022-11-18T00:56:08;99921.97;;;7.76;100.00
36726;BME280;44936;52.086;5.150;2022-11-18T00:58:35;99902.84;;;7.63;100.00
36726;BME280;44936;52.086;5.150;2022-11-18T01:01:05;99912.41;;;7.65;100.00
36726;BME280;44936;52.086;5.150;2022-11-18T01:03:30;99934.16;;;7.77;100.00
36726;BME280;44936;52.086;5.150;2022-11-18T01:05:57;99915.91;;;7.71;100.00
36726;BME280;44936;52.086;5.150;2022-11-18T01:08:22;99897.63;;;7.60;100.00
36726;BME280;44936;52.086;5.150;2022-11-18T01:10:48;99901.97;;;7.64;100.00
36726;BME280;44936;52.086;5.150;2022-11-18T01:13:17;99896.75;;;7.58;100.00
36726;BME280;44936;52.086;5.150;2022-11-18T01:15:46;99927.19;;;7.68;100.00
36726;BME280;44936;52.086;5.150;2022-11-18T01:18:11;99897.59;;;7.49;100.00
36726;BME280;44936;52.086;5.150;2022-11-18T01:20:37;99934.16;;;7.64;100.00
36726;BME280;44936;52.086;5.150;2022-11-18T01:23:03;99911.53;;;7.56;100.00
36726;BME280;44936;52.086;5.150;2022-11-18T01:25:29;99887.16;;;7.42;100.00
36726;BME280;44936;52.086;5.150;2022-11-18T01:27:57;99915.03;;;7.64;100.00
36726;BME280;44936;52.086;5.150;2022-11-18T01:30:23;99942.84;;;7.68;100.00
36726;BME280;44936;52.086;5.150;2022-11-18T01:32:49;99925.47;;;7.61;100.00
36726;BME280;44936;52.086;5.150;2022-11-18T01:35:14;99939.38;;;7.54;100.00
36726;BME280;44936;52.086;5.150;2022-11-18T01:37:40;99922.81;;;7.38;100.00
36726;BME280;44936;52.086;5.150;2022-11-18T01:40:07;99971.56;;;7.56;100.00
36726;BME280;44936;52.086;5.150;2022-11-18T01:42:33;99933.25;;;7.32;100.00
36726;BME280;44936;52.086;5.150;2022-11-18T01:47:41;99956.75;;;7.43;100.00
36726;BME280;44936;52.086;5.150;2022-11-18T01:50:09;99979.38;;;7.45;100.00
36726;BME280;44936;52.086;5.150;2022-11-18T01:52:36;99981.09;;;7.40;100.00
36726;BME280;44936;52.086;5.150;2022-11-18T01:55:13;99966.31;;;7.41;100.00
36726;BME280;44936;52.086;5.150;2022-11-18T01:57:41;99969.81;;;7.44;100.00
36726;BME280;44936;52.086;5.150;2022-11-18T02:00:12;99964.59;;;7.44;100.00
36726;BME280;44936;52.086;5.150;2022-11-18T02:02:40;99962.84;;;7.46;100.00
36726;BME280;44936;52.086;5.150;2022-11-18T02:05:07;99960.25;;;7.61;100.00
36726;BME280;44936;52.086;5.150;2022-11-18T02:07:40;99921.94;;;7.33;100.00
36726;BME280;44936;52.086;5.150;2022-11-18T02:10:07;99927.16;;;7.33;100.00
36726;BME280;44936;52.086;5.150;2022-11-18T02:12:36;99956.75;;;7.39;100.00
36726;BME280;44936;52.086;5.150;2022-11-18T02:15:02;99938.44;;;7.17;100.00
36726;BME280;44936;52.086;5.150;2022-11-18T02:20:36;99983.69;;;7.37;100.00
36726;BME280;44936;52.086;5.150;2022-11-18T02:23:16;99978.47;;;7.25;100.00
36726;BME280;44936;52.086;5.150;2022-11-18T02:36:58;99998.53;;;7.53;100.00
36726;BME280;44936;52.086;5.150;2022-11-18T02:39:31;99994.16;;;7.43;100.00
36726;BME280;44936;52.086;5.150;2022-11-18T02:42:03;99970.63;;;7.25;100.00
36726;BME280;44936;52.086;5.150;2022-11-18T02:44:31;99972.38;;;7.27;100.00
36726;BME280;44936;52.086;5.150;2022-11-18T02:47:05;99995.91;;;7.43;100.00
36726;BME280;44936;52.086;5.150;2022-11-18T02:49:38;99974.13;;;7.28;100.00
36726;BME280;44936;52.086;5.150;2022-11-18T02:52:06;99994.16;;;7.49;100.00
36726;BME280;44936;52.086;5.150;2022-11-18T02:54:35;99982.84;;;7.46;100.00
36726;BME280;44936;52.086;5.150;2022-11-18T02:57:03;99980.22;;;7.39;100.00
36726;BME280;44936;52.086;5.150;2022-11-18T02:59:29;99995.03;;;7.45;100.00
36726;BME280;44936;52.086;5.150;2022-11-18T03:01:57;99998.50;;;7.46;100.00
36726;BME280;44936;52.086;5.150;2022-11-18T03:04:23;99979.31;;;7.31;100.00
36726;BME280;44936;52.086;5.150;2022-11-18T03:07:17;100004.56;;;7.42;100.00
36726;BME280;44936;52.086;5.150;2022-11-18T03:09:47;99992.34;;;7.24;100.00
36726;BME280;44936;52.086;5.150;2022-11-18T03:12:30;100034.13;;;7.36;100.00
36726;BME280;44936;52.086;5.150;2022-11-18T03:15:13;100039.41;;;7.51;100.00
36726;BME280;44936;52.086;5.150;2022-11-18T03:20:37;100032.41;;;7.41;100.00
36726;BME280;44936;52.086;5.150;2022-11-18T03:23:05;100037.63;;;7.41;100.00
36726;BME280;44936;52.086;5.150;2022-11-18T03:25:54;99992.34;;;7.22;100.00
36726;BME280;44936;52.086;5.150;2022-11-18T03:30:57;99982.75;;;7.14;100.00
36726;BME280;44936;52.086;5.150;2022-11-18T03:33:30;99976.66;;;7.15;100.00
36726;BME280;44936;52.086;5.150;2022-11-18T03:36:00;99985.41;;;7.26;100.00
36726;BME280;44936;52.086;5.150;2022-11-18T03:38:32;99975.00;;;7.26;100.00
36726;BME280;44936;52.086;5.150;2022-11-18T03:41:00;99987.16;;;7.33;100.00
36726;BME280;44936;52.086;5.150;2022-11-18T03:43:31;99994.97;;;7.33;100.00
36726;BME280;44936;52.086;5.150;2022-11-18T03:46:16;99960.16;;;7.14;100.00
36726;BME280;44936;52.086;5.150;2022-11-18T03:48:51;99961.88;;;7.01;100.00
36726;BME280;44936;52.086;5.150;2022-11-18T03:51:28;99990.59;;;7.20;100.00
36726;BME280;44936;52.086;5.150;2022-11-18T03:54:05;100017.63;;;7.34;100.00
36726;BME280;44936;52.086;5.150;2022-11-18T03:56:37;99962.78;;;7.09;100.00
36726;BME280;44936;52.086;5.150;2022-11-18T03:59:16;99979.31;;;7.31;100.00
36726;BME280;44936;52.086;5.150;2022-11-18T04:01:54;99962.81;;;7.31;100.00
36726;BME280;44936;52.086;5.150;2022-11-18T04:04:24;99921.94;;;7.18;100.00
36726;BME280;44936;52.086;5.150;2022-11-18T04:07:04;99929.72;;;7.15;100.00
36726;BME280;44936;52.086;5.150;2022-11-18T04:09:36;99892.28;;;6.87;100.00
36726;BME280;44936;52.086;5.150;2022-11-18T04:12:10;99945.38;;;7.12;100.00
36726;BME280;44936;52.086;5.150;2022-11-18T04:14:39;99955.78;;;7.05;100.00
36726;BME280;44936;52.086;5.150;2022-11-18T04:17:15;99965.38;;;7.13;100.00
36726;BME280;44936;52.086;5.150;2022-11-18T04:19:41;99956.69;;;7.14;100.00
36726;BME280;44936;52.086;5.150;2022-11-18T04:22:08;99970.63;;;7.17;100.00
36726;BME280;44936;52.086;5.150;2022-11-18T04:24:33;99964.47;;;6.98;100.00
36726;BME280;44936;52.086;5.150;2022-11-18T04:26:59;99998.41;;;7.10;100.00
36726;BME280;44936;52.086;5.150;2022-11-18T04:29:27;99977.41;;;6.80;100.00
36726;BME280;44936;52.086;5.150;2022-11-18T04:31:53;99982.69;;;6.89;100.00
36726;BME280;44936;52.086;5.150;2022-11-18T04:34:21;100037.53;;;7.14;100.00
36726;BME280;44936;52.086;5.150;2022-11-18T04:36:46;100020.97;;;7.05;100.00
36726;BME280;44936;52.086;5.150;2022-11-18T04:39:12;100007.94;;;7.01;100.00
36726;BME280;44936;52.086;5.150;2022-11-18T04:41:39;100000.94;;;6.95;100.00
36726;BME280;44936;52.086;5.150;2022-11-18T04:44:27;100005.28;;;6.93;100.00
36726;BME280;44936;52.086;5.150;2022-11-18T04:46:55;100015.69;;;6.89;100.00
36726;BME280;44936;52.086;5.150;2022-11-18T04:49:25;100029.56;;;6.86;100.00
36726;BME280;44936;52.086;5.150;2022-11-18T04:51:51;100007.81;;;6.72;100.00
36726;BME280;44936;52.086;5.150;2022-11-18T04:54:18;100065.25;;;6.96;100.00
36726;BME280;44936;52.086;5.150;2022-11-18T04:56:44;100076.59;;;7.01;100.00
36726;BME280;44936;52.086;5.150;2022-11-18T04:59:12;100083.53;;;6.99;100.00
36726;BME280;44936;52.086;5.150;2022-11-18T05:01:38;100059.03;;;6.71;100.00
36726;BME280;44936;52.086;5.150;2022-11-18T05:04:10;100079.94;;;6.79;100.00
36726;BME280;44936;52.086;5.150;2022-11-18T05:06:47;100107.84;;;6.97;100.00
36726;BME280;44936;52.086;5.150;2022-11-18T05:09:13;100106.94;;;6.90;100.00
36726;BME280;44936;52.086;5.150;2022-11-18T05:11:38;100105.16;;;6.85;100.00
36726;BME280;44936;52.086;5.150;2022-11-18T05:14:27;100115.59;;;6.85;100.00
36726;BME280;44936;52.086;5.150;2022-11-18T05:16:53;100127.88;;;6.99;100.00
36726;BME280;44936;52.086;5.150;2022-11-18T05:19:19;100119.94;;;6.84;100.00
36726;BME280;44936;52.086;5.150;2022-11-18T05:21:44;100098.09;;;6.64;100.00
36726;BME280;44936;52.086;5.150;2022-11-18T05:24:10;100102.44;;;6.63;100.00
36726;BME280;44936;52.086;5.150;2022-11-18T05:26:35;100106.78;;;6.70;100.00
36726;BME280;44936;52.086;5.150;2022-11-18T05:29:01;100151.28;;;6.98;100.00
36726;BME280;44936;52.086;5.150;2022-11-18T05:31:26;100137.31;;;6.85;100.00
36726;BME280;44936;52.086;5.150;2022-11-18T05:33:52;100130.31;;;6.79;100.00
36726;BME280;44936;52.086;5.150;2022-11-18T05:36:18;100143.44;;;6.90;100.00
36726;BME280;44936;52.086;5.150;2022-11-18T05:38:44;100135.66;;;6.98;100.00
36726;BME280;44936;52.086;5.150;2022-11-18T05:41:10;100125.25;;;7.02;100.00
36726;BME280;44936;52.086;5.150;2022-11-18T05:43:56;100058.22;;;6.80;100.00
36726;BME280;44936;52.086;5.150;2022-11-18T05:46:21;100052.16;;;6.89;100.00
36726;BME280;44936;52.086;5.150;2022-11-18T05:48:47;100053.94;;;6.93;100.00
36726;BME280;44936;52.086;5.150;2022-11-18T05:51:13;100056.56;;;6.91;100.00
36726;BME280;44936;52.086;5.150;2022-11-18T05:53:40;100051.31;;;6.88;100.00
36726;BME280;44936;52.086;5.150;2022-11-18T05:58:42;100066.97;;;6.90;100.00
36726;BME280;44936;52.086;5.150;2022-11-18T06:01:09;100111.41;;;7.11;100.00
36726;BME280;44936;52.086;5.150;2022-11-18T06:03:39;100115.78;;;7.17;100.00
36726;BME280;44936;52.086;5.150;2022-11-18T06:06:09;100115.81;;;7.23;100.00
36726;BME280;44936;52.086;5.150;2022-11-18T06:08:42;100074.91;;;7.09;100.00
36726;BME280;44936;52.086;5.150;2022-11-18T06:11:11;100093.22;;;7.26;100.00
36726;BME280;44936;52.086;5.150;2022-11-18T06:13:43;100072.28;;;7.13;100.00
36726;BME280;44936;52.086;5.150;2022-11-18T06:16:15;100087.97;;;7.20;100.00
36726;BME280;44936;52.086;5.150;2022-11-18T06:18:42;100086.19;;;7.13;100.00
36726;BME280;44936;52.086;5.150;2022-11-18T06:21:07;100111.50;;;7.29;100.00
36726;BME280;44936;52.086;5.150;2022-11-18T06:23:34;100115.84;;;7.32;100.00
36726;BME280;44936;52.086;5.150;2022-11-18T06:26:01;100124.56;;;7.34;100.00
36726;BME280;44936;52.086;5.150;2022-11-18T06:28:28;100166.41;;;7.52;100.00
36726;BME280;44936;52.086;5.150;2022-11-18T06:30:54;100195.16;;;7.60;100.00
36726;BME280;44936;52.086;5.150;2022-11-18T06:33:19;100189.03;;;7.56;100.00
36726;BME280;44936;52.086;5.150;2022-11-18T06:35:45;100204.63;;;7.47;100.00
36726;BME280;44936;52.086;5.150;2022-11-18T06:38:10;100244.72;;;7.61;100.00
36726;BME280;44936;52.086;5.150;2022-11-18T06:40:36;100242.94;;;7.51;100.00
36726;BME280;44936;52.086;5.150;2022-11-18T06:43:09;100242.91;;;7.48;100.00
36726;BME280;44936;52.086;5.150;2022-11-18T06:46:00;100262.97;;;7.57;100.00
36726;BME280;44936;52.086;5.150;2022-11-18T06:48:45;100230.66;;;7.38;100.00
36726;BME280;44936;52.086;5.150;2022-11-18T06:51:10;100263.78;;;7.48;100.00
36726;BME280;44936;52.086;5.150;2022-11-18T06:53:42;100286.44;;;7.58;100.00
36726;BME280;44936;52.086;5.150;2022-11-18T06:56:14;100262.03;;;7.50;100.00
36726;BME280;44936;52.086;5.150;2022-11-18T06:58:40;100298.63;;;7.59;100.00
36726;BME280;44936;52.086;5.150;2022-11-18T07:01:13;100314.34;;;7.61;100.00
36726;BME280;44936;52.086;5.150;2022-11-18T07:03:40;100312.53;;;7.55;100.00
36726;BME280;44936;52.086;5.150;2022-11-18T07:06:06;100320.38;;;7.54;100.00
36726;BME280;44936;52.086;5.150;2022-11-18T07:08:36;100336.09;;;7.61;100.00
36726;BME280;44936;52.086;5.150;2022-11-18T07:11:06;100364.88;;;7.72;100.00
36726;BME280;44936;52.086;5.150;2022-11-18T07:13:34;100375.31;;;7.74;100.00
36726;BME280;44936;52.086;5.150;2022-11-18T07:16:13;100369.28;;;7.79;100.00
36726;BME280;44936;52.086;5.150;2022-11-18T07:18:41;100349.16;;;7.64;100.00
36726;BME280;44936;52.086;5.150;2022-11-18T07:21:12;100379.72;;;7.81;100.00
36726;BME280;44936;52.086;5.150;2022-11-18T07:23:38;100385.81;;;7.86;100.00
36726;BME280;44936;52.086;5.150;2022-11-18T07:26:04;100364.84;;;7.71;100.00
36726;BME280;44936;52.086;5.150;2022-11-18T07:28:34;100412.03;;;8.00;100.00
36726;BME280;44936;52.086;5.150;2022-11-18T07:31:16;100391.09;;;7.89;100.00
36726;BME280;44936;52.086;5.150;2022-11-18T07:33:43;100423.41;;;8.05;100.00
36726;BME280;44936;52.086;5.150;2022-11-18T07:36:17;100430.38;;;8.09;100.00
36726;BME280;44936;52.086;5.150;2022-11-18T07:38:44;100448.72;;;8.16;100.00
36726;BME280;44936;52.086;5.150;2022-11-18T07:41:12;100436.50;;;8.12;100.00
36726;BME280;44936;52.086;5.150;2022-11-18T07:43:38;100439.16;;;8.15;100.00
36726;BME280;44936;52.086;5.150;2022-11-18T07:46:19;100447.84;;;8.19;100.00
36726;BME280;44936;52.086;5.150;2022-11-18T07:48:46;100464.47;;;8.26;100.00
36726;BME280;44936;52.086;5.150;2022-11-18T07:51:13;100471.44;;;8.27;100.00
36726;BME280;44936;52.086;5.150;2022-11-18T07:53:38;100443.50;;;8.16;100.00
36726;BME280;44936;52.086;5.150;2022-11-18T07:56:09;100428.59;;;8.03;100.00
36726;BME280;44936;52.086;5.150;2022-11-18T07:58:35;100473.22;;;8.34;100.00
36726;BME280;44936;52.086;5.150;2022-11-18T08:01:12;100442.56;;;8.05;100.00
36726;BME280;44936;52.086;5.150;2022-11-18T08:03:41;100453.06;;;8.14;100.00
36726;BME280;44936;52.086;5.150;2022-11-18T08:06:08;100495.00;;;8.34;100.00
36726;BME280;44936;52.086;5.150;2022-11-18T08:08:35;100511.66;;;8.47;100.00
36726;BME280;44936;52.086;5.150;2022-11-18T08:11:03;100471.41;;;8.23;100.00
36726;BME280;44936;52.086;5.150;2022-11-18T08:13:30;100492.44;;;8.36;100.00
36726;BME280;44936;52.086;5.150;2022-11-18T08:16:03;100477.50;;;8.24;100.00
36726;BME280;44936;52.086;5.150;2022-11-18T08:18:30;100494.13;;;8.31;100.00
36726;BME280;44936;52.086;5.150;2022-11-18T08:21:03;100523.91;;;8.52;100.00
36726;BME280;44936;52.086;5.150;2022-11-18T08:23:34;100517.69;;;8.38;100.00
36726;BME280;44936;52.086;5.150;2022-11-18T08:26:11;100500.09;;;8.16;100.00
36726;BME280;44936;52.086;5.150;2022-11-18T08:28:41;100527.22;;;8.32;100.00
36726;BME280;44936;52.086;5.150;2022-11-18T08:33:39;100534.03;;;8.13;100.00
36726;BME280;44936;52.086;5.150;2022-11-18T08:36:14;100535.75;;;8.12;100.00
36726;BME280;44936;52.086;5.150;2022-11-18T08:38:40;100545.41;;;8.19;100.00
36726;BME280;44936;52.086;5.150;2022-11-18T08:41:06;100559.38;;;8.23;100.00
36726;BME280;44936;52.086;5.150;2022-11-18T08:43:35;100526.09;;;8.01;100.00
36726;BME280;44936;52.086;5.150;2022-11-18T08:46:03;100541.88;;;8.14;100.00
36726;BME280;44936;52.086;5.150;2022-11-18T08:48:32;100556.78;;;8.28;100.00
36726;BME280;44936;52.086;5.150;2022-11-18T08:50:58;100511.41;;;8.13;100.00
36726;BME280;44936;52.086;5.150;2022-11-18T08:53:28;100502.78;;;8.23;100.00
36726;BME280;44936;52.086;5.150;2022-11-18T08:55:58;100532.50;;;8.38;100.00
36726;BME280;44936;52.086;5.150;2022-11-18T08:58:25;100541.09;;;8.28;100.00
36726;BME280;44936;52.086;5.150;2022-11-18T09:00:52;100540.41;;;8.45;100.00
36726;BME280;44936;52.086;5.150;2022-11-18T09:03:18;100568.38;;;8.59;100.00
36726;BME280;44936;52.086;5.150;2022-11-18T09:05:44;100567.56;;;8.67;100.00
36726;BME280;44936;52.086;5.150;2022-11-18T09:08:09;100533.56;;;8.66;100.00
36726;BME280;44936;52.086;5.150;2022-11-18T09:10:38;100530.00;;;8.51;100.00
36726;BME280;44936;52.086;5.150;2022-11-18T09:13:04;100578.09;;;8.78;100.00
36726;BME280;44936;52.086;5.150;2022-11-18T09:15:34;100565.88;;;8.75;100.00
36726;BME280;44936;52.086;5.150;2022-11-18T09:18:02;100553.56;;;8.58;100.00
36726;BME280;44936;52.086;5.150;2022-11-18T09:20:28;100591.97;;;8.69;100.00
36726;BME280;44936;52.086;5.150;2022-11-18T09:22:56;100625.09;;;8.73;100.00
36726;BME280;44936;52.086;5.150;2022-11-18T09:25:21;100590.06;;;8.47;100.00
36726;BME280;44936;52.086;5.150;2022-11-18T09:27:47;100608.41;;;8.50;100.00
36726;BME280;44936;52.086;5.150;2022-11-18T09:30:12;100609.28;;;8.52;100.00
36726;BME280;44936;52.086;5.150;2022-11-18T09:32:38;100632.94;;;8.70;100.00
36726;BME280;44936;52.086;5.150;2022-11-18T09:35:03;100647.75;;;8.71;100.00
36726;BME280;44936;52.086;5.150;2022-11-18T09:37:29;100659.09;;;8.70;100.00
36726;BME280;44936;52.086;5.150;2022-11-18T09:39:55;100658.22;;;8.70;100.00
36726;BME280;44936;52.086;5.150;2022-11-18T09:45:33;100634.63;;;8.64;100.00
36726;BME280;44936;52.086;5.150;2022-11-18T09:48:20;100617.25;;;8.66;100.00
36726;BME280;44936;52.086;5.150;2022-11-18T09:51:10;100654.84;;;8.86;100.00
36726;BME280;44936;52.086;5.150;2022-11-18T09:53:39;100637.41;;;8.87;100.00
36726;BME280;44936;52.086;5.150;2022-11-18T09:56:12;100627.00;;;8.96;100.00
36726;BME280;44936;52.086;5.150;2022-11-18T09:58:39;100605.16;;;8.85;100.00
36726;BME280;44936;52.086;5.150;2022-11-18T10:01:11;100609.53;;;8.92;100.00
36726;BME280;44936;52.086;5.150;2022-11-18T10:03:38;100684.69;;;9.17;100.00
36726;BME280;44936;52.086;5.150;2022-11-18T10:06:23;100699.56;;;9.26;100.00
36726;BME280;44936;52.086;5.150;2022-11-18T10:11:53;100658.50;;;9.13;100.00
36726;BME280;44936;52.086;5.150;2022-11-18T10:17:24;100716.25;;;9.45;100.00
36726;BME280;44936;52.086;5.150;2022-11-18T10:20:07;100711.06;;;9.51;100.00
36726;BME280;44936;52.086;5.150;2022-11-18T10:22:58;100746.09;;;9.73;100.00
36726;BME280;44936;52.086;5.150;2022-11-18T10:25:27;100698.81;;;9.44;100.00
36726;BME280;44936;52.086;5.150;2022-11-18T10:27:54;100736.44;;;9.59;100.00
36726;BME280;44936;52.086;5.150;2022-11-18T10:30:23;100731.19;;;9.58;100.00
36726;BME280;44936;52.086;5.150;2022-11-18T10:32:54;100770.47;;;9.58;100.00
36726;BME280;44936;52.086;5.150;2022-11-18T10:35:36;100746.78;;;9.40;100.00
36726;BME280;44936;52.086;5.150;2022-11-18T10:40:43;100751.31;;;9.68;100.00
36726;BME280;44936;52.086;5.150;2022-11-18T10:43:10;100748.72;;;9.73;100.00
36726;BME280;44936;52.086;5.150;2022-11-18T10:46:04;100759.28;;;9.92;100.00
36726;BME280;44936;52.086;5.150;2022-11-18T10:49:24;100804.78;;;10.10;100.00
36726;BME280;44936;52.086;5.150;2022-11-18T10:52:07;100801.28;;;10.11;100.00
36726;BME280;44936;52.086;5.150;2022-11-18T10:57:41;100746.13;;;9.77;100.00
36726;BME280;44936;52.086;5.150;2022-11-18T11:00:39;100792.59;;;10.16;100.00
36726;BME280;44936;52.086;5.150;2022-11-18T11:08:49;100772.47;;;10.14;100.00
36726;BME280;44936;52.086;5.150;2022-11-18T11:14:17;100706.88;;;9.86;100.00
36726;BME280;44936;52.086;5.150;2022-11-18T11:17:17;100725.25;;;9.99;100.00
36726;BME280;44936;52.086;5.150;2022-11-18T11:22:25;100757.72;;;10.25;100.00
36726;BME280;44936;52.086;5.150;2022-11-18T11:24:50;100726.94;;;9.81;100.00
36726;BME280;44936;52.086;5.150;2022-11-18T11:27:23;100762.03;;;10.23;100.00
36726;BME280;44936;52.086;5.150;2022-11-18T11:35:27;100726.28;;;10.46;100.00
36726;BME280;44936;52.086;5.150;2022-11-18T11:37:57;100717.50;;;10.31;100.00
36726;BME280;44936;52.086;5.150;2022-11-18T11:41:12;100742.06;;;10.60;100.00
36726;BME280;44936;52.086;5.150;2022-11-18T11:43:49;100776.16;;;10.60;100.00
36726;BME280;44936;52.086;5.150;2022-11-18T11:49:29;100763.88;;;10.58;100.00
36726;BME280;44936;52.086;5.150;2022-11-18T11:52:08;100772.63;;;10.54;100.00
36726;BME280;44936;52.086;5.150;2022-11-18T11:57:31;100781.41;;;10.85;100.00
36726;BME280;44936;52.086;5.150;2022-11-18T12:00:12;100756.91;;;10.75;100.00
36726;BME280;44936;52.086;5.150;2022-11-18T12:05:52;100749.91;;;10.65;100.00
36726;BME280;44936;52.086;5.150;2022-11-18T12:08:23;100776.16;;;10.80;100.00
36726;BME280;44936;52.086;5.150;2022-11-18T12:10:52;100808.53;;;10.87;100.00
36726;BME280;44936;52.086;5.150;2022-11-18T12:19:36;100810.22;;;10.57;100.00
36726;BME280;44936;52.086;5.150;2022-11-18T12:22:04;100792.75;;;10.62;100.00
36726;BME280;44936;52.086;5.150;2022-11-18T12:29:54;100796.19;;;10.50;100.00
36726;BME280;44936;52.086;5.150;2022-11-18T12:32:36;100773.44;;;10.42;100.00
36726;BME280;44936;52.086;5.150;2022-11-18T12:40:08;100826.81;;;10.45;100.00
36726;BME280;44936;52.086;5.150;2022-11-18T12:42:44;100815.44;;;10.49;100.00
36726;BME280;44936;52.086;5.150;2022-11-18T12:48:29;100814.56;;;10.47;100.00
36726;BME280;44936;52.086;5.150;2022-11-18T12:51:06;100806.69;;;10.47;100.00
36726;BME280;44936;52.086;5.150;2022-11-18T12:53:38;100776.94;;;10.29;100.00
36726;BME280;44936;52.086;5.150;2022-11-18T12:56:26;100809.31;;;10.47;100.00
36726;BME280;44936;52.086;5.150;2022-11-18T13:53:43;100762.84;;;10.13;100.00
36726;BME280;44936;52.086;5.150;2022-11-18T13:56:18;100769.00;;;10.16;100.00
36726;BME280;44936;52.086;5.150;2022-11-18T14:01:22;100773.44;;;10.27;100.00
36726;BME280;44936;52.086;5.150;2022-11-18T14:06:42;100787.34;;;10.21;100.00
36726;BME280;44936;52.086;5.150;2022-11-18T14:09:29;100831.16;;;10.51;100.00
36726;BME280;44936;52.086;5.150;2022-11-18T14:15:33;100798.78;;;10.32;100.00
36726;BME280;44936;52.086;5.150;2022-11-18T14:46:39;100818.75;;;10.10;100.00
36726;BME280;44936;52.086;5.150;2022-11-18T14:49:18;100806.53;;;10.11;100.00
36726;BME280;44936;52.086;5.150;2022-11-18T14:51:51;100741.78;;;9.81;100.00
36726;BME280;44936;52.086;5.150;2022-11-18T14:54:19;100757.50;;;9.85;100.00
36726;BME280;44936;52.086;5.150;2022-11-18T14:56:48;100769.78;;;9.96;100.00
36726;BME280;44936;52.086;5.150;2022-11-18T14:59:18;100754.94;;;9.91;100.00
36726;BME280;44936;52.086;5.150;2022-11-18T15:01:46;100721.69;;;9.81;100.00
36726;BME280;44936;52.086;5.150;2022-11-18T15:04:12;100760.13;;;9.88;100.00
36726;BME280;44936;52.086;5.150;2022-11-18T15:07:03;100737.41;;;9.81;100.00
36726;BME280;44936;52.086;5.150;2022-11-18T15:09:58;100764.53;;;9.89;100.00
36726;BME280;44936;52.086;5.150;2022-11-18T15:12:24;100747.03;;;9.81;100.00
36726;BME280;44936;52.086;5.150;2022-11-18T15:14:50;100759.28;;;9.89;100.00
36726;BME280;44936;52.086;5.150;2022-11-18T15:17:18;100779.41;;;10.01;100.00
36726;BME280;44936;52.086;5.150;2022-11-18T15:19:55;100752.25;;;9.82;100.00
36726;BME280;44936;52.086;5.150;2022-11-18T15:22:20;100781.13;;;9.94;100.00
36726;BME280;44936;52.086;5.150;2022-11-18T15:24:54;100776.72;;;9.86;100.00
36726;BME280;44936;52.086;5.150;2022-11-18T15:27:19;100794.22;;;9.91;100.00
36726;BME280;44936;52.086;5.150;2022-11-18T15:29:48;100794.22;;;9.91;100.00
36726;BME280;44936;52.086;5.150;2022-11-18T15:32:14;100799.41;;;9.82;100.00
36726;BME280;44936;52.086;5.150;2022-11-18T15:34:40;100754.75;;;9.56;100.00
36726;BME280;44936;52.086;5.150;2022-11-18T15:37:06;100800.28;;;9.81;100.00
36726;BME280;44936;52.086;5.150;2022-11-18T15:39:34;100798.53;;;9.83;100.00
36726;BME280;44936;52.086;5.150;2022-11-18T15:42:00;100767.03;;;9.67;100.00
36726;BME280;44936;52.086;5.150;2022-11-18T15:44:25;100733.75;;;9.46;100.00
36726;BME280;44936;52.086;5.150;2022-11-18T15:46:51;100786.28;;;9.76;100.00
36726;BME280;44936;52.086;5.150;2022-11-18T15:49:16;100763.53;;;9.66;100.00
36726;BME280;44936;52.086;5.150;2022-11-18T15:51:42;100788.06;;;9.82;100.00
36726;BME280;44936;52.086;5.150;2022-11-18T15:54:08;100796.78;;;9.84;100.00
36726;BME280;44936;52.086;5.150;2022-11-18T15:56:33;100775.75;;;9.64;100.00
36726;BME280;44936;52.086;5.150;2022-11-18T15:59:11;100802.00;;;9.79;100.00
36726;BME280;44936;52.086;5.150;2022-11-18T16:01:43;100763.44;;;9.51;100.00
36726;BME280;44936;52.086;5.150;2022-11-18T16:04:11;100766.03;;;9.46;100.00
36726;BME280;44936;52.086;5.150;2022-11-18T16:06:39;100787.03;;;9.55;100.00
36726;BME280;44936;52.086;5.150;2022-11-18T16:09:08;100760.75;;;9.45;100.00
36726;BME280;44936;52.086;5.150;2022-11-18T16:11:33;100783.56;;;9.62;100.00